Time;durP1;ratioP1;P1;durP2;ratioP2;P2;SDS_P1;SDS_P2;PMS_P1;PMS_P2;Temp;Humidity;BMP_temperature;BMP_pressure;BME280_temperature;BME280_humidity;BME280_pressure;Samples;Min_cycle;Max_cycle;Signal;HPM_P1;HPM_P2
2023/03/05 00:02:23;;;;;;;17.50;8.82;;;5.80;99.90;;;;;;5114053;27;20024;-48
2023/03/05 00:04:48;;;;;;;13.73;8.48;;;5.80;99.90;;;;;;5113941;27;20035;-46
2023/03/05 00:07:14;;;;;;;15.57;9.77;;;5.80;99.90;;;;;;5114692;27;20031;-50
2023/03/05 00:09:40;;;;;;;14.57;8.95;;;5.80;99.90;;;;;;5113568;27;20024;-45
2023/03/05 00:12:06;;;;;;;18.50;9.48;;;5.80;99.90;;;;;;5115210;27;20026;-49
2023/03/05 00:14:32;;;;;;;12.77;7.60;;;5.80;99.90;;;;;;5113598;27;20024;-45
2023/03/05 00:16:57;;;;;;;14.15;7.78;;;5.70;99.90;;;;;;5115502;27;20028;-50
2023/03/05 00:19:23;;;;;;;10.60;6.82;;;5.80;99.90;;;;;;5113779;27;20035;-49
2023/03/05 00:21:48;;;;;;;13.07;7.60;;;5.70;99.90;;;;;;5114975;27;20023;-47
2023/03/05 00:24:17;;;;;;;12.55;7.53;;;5.70;99.90;;;;;;5118669;27;20126;-48
2023/03/05 00:26:44;;;;;;;10.45;7.70;;;5.70;99.90;;;;;;5111899;27;20096;-45
2023/03/05 00:29:17;;;;;;;12.48;8.18;;;5.70;99.90;;;;;;5115374;27;20026;-52
2023/03/05 00:31:43;;;;;;;11.90;7.10;;;5.70;99.90;;;;;;5113093;27;20022;-49
2023/03/05 00:34:13;;;;;;;14.82;7.68;;;5.70;99.90;;;;;;5113970;27;20487;-48
2023/03/05 00:36:44;;;;;;;10.40;6.80;;;5.70;99.90;;;;;;5113771;27;20544;-49
2023/03/05 00:39:10;;;;;;;12.93;8.05;;;5.70;99.90;;;;;;5114423;27;20522;-51
2023/03/05 00:41:37;;;;;;;11.75;8.00;;;5.70;99.90;;;;;;5113496;27;20080;-48
2023/03/05 00:44:03;;;;;;;17.05;8.20;;;5.70;99.90;;;;;;5113504;27;20070;-49
2023/03/05 00:46:28;;;;;;;12.05;8.23;;;5.70;99.90;;;;;;5113481;27;20051;-49
2023/03/05 00:48:55;;;;;;;13.30;7.53;;;5.70;99.90;;;;;;5104161;27;20428;-48
2023/03/05 00:51:21;;;;;;;12.82;7.25;;;5.80;99.90;;;;;;5105260;28;20026;-51
2023/03/05 00:53:46;;;;;;;14.07;7.43;;;5.70;99.90;;;;;;5112446;27;20114;-47
2023/03/05 00:56:12;;;;;;;10.55;7.57;;;5.70;99.90;;;;;;5110368;28;20027;-46
2023/03/05 00:58:38;;;;;;;13.65;8.15;;;5.60;99.90;;;;;;5111651;28;20429;-51
2023/03/05 01:01:04;;;;;;;15.93;9.60;;;5.60;99.90;;;;;;5111624;28;20019;-50
2023/03/05 01:03:31;;;;;;;14.07;8.20;;;5.60;99.90;;;;;;5111287;28;20031;-48
2023/03/05 01:05:58;;;;;;;13.25;8.00;;;5.60;99.90;;;;;;5111394;28;20055;-44
2023/03/05 01:08:24;;;;;;;11.48;7.43;;;5.50;99.90;;;;;;5111028;28;20023;-45
2023/03/05 01:10:50;;;;;;;11.77;8.15;;;5.50;99.90;;;;;;5111320;28;20110;-50
2023/03/05 01:13:16;;;;;;;13.15;8.30;;;5.50;99.90;;;;;;5111458;28;20020;-45
2023/03/05 01:15:42;;;;;;;11.05;8.05;;;5.50;99.90;;;;;;5110774;28;20073;-46
2023/03/05 01:18:07;;;;;;;14.80;8.63;;;5.50;99.90;;;;;;5110612;28;20026;-47
2023/03/05 01:20:33;;;;;;;12.82;8.05;;;5.50;99.90;;;;;;5109845;28;20429;-48
2023/03/05 01:23:00;;;;;;;18.67;9.48;;;5.50;99.90;;;;;;5113676;27;20057;-46
2023/03/05 01:25:27;;;;;;;16.00;8.95;;;5.50;99.90;;;;;;5114913;27;20032;-46
2023/03/05 01:27:53;;;;;;;17.42;9.00;;;5.50;99.90;;;;;;5110344;28;20023;-45
2023/03/05 01:30:19;;;;;;;15.07;7.95;;;5.50;99.90;;;;;;5110424;28;20082;-48
2023/03/05 01:32:44;;;;;;;18.27;9.20;;;5.50;99.90;;;;;;5109767;28;20055;-49
2023/03/05 01:35:16;;;;;;;14.48;8.05;;;5.50;99.90;;;;;;5110291;28;20467;-53
2023/03/05 01:37:42;;;;;;;12.50;7.13;;;5.50;99.90;;;;;;5110116;28;20016;-48
2023/03/05 01:40:09;;;;;;;10.60;7.68;;;5.50;99.90;;;;;;5110815;28;20134;-47
2023/03/05 01:42:35;;;;;;;12.20;7.30;;;5.50;99.90;;;;;;5111878;28;20016;-52
2023/03/05 01:45:12;;;;;;;11.73;7.43;;;5.50;99.90;;;;;;5110332;28;20042;-47
2023/03/05 01:47:38;;;;;;;12.35;7.63;;;5.50;99.90;;;;;;5110482;28;20015;-47
2023/03/05 01:50:08;;;;;;;10.65;7.25;;;5.50;99.90;;;;;;5096159;28;20028;-47
2023/03/05 01:52:37;;;;;;;12.00;7.30;;;5.50;99.90;;;;;;5110976;28;20016;-45
2023/03/05 01:55:11;;;;;;;15.80;8.02;;;5.50;99.90;;;;;;5109618;28;20474;-45
2023/03/05 01:57:42;;;;;;;24.63;11.55;;;5.40;99.90;;;;;;5110864;28;20036;-44
2023/03/05 02:00:18;;;;;;;27.88;13.02;;;5.40;99.90;;;;;;5111130;28;20644;-45
2023/03/05 02:02:47;;;;;;;19.13;10.75;;;5.40;99.90;;;;;;5114983;28;20027;-44
2023/03/05 02:05:27;;;;;;;13.85;9.18;;;5.40;99.90;;;;;;5114656;28;20517;-48
2023/03/05 02:08:01;;;;;;;14.48;8.93;;;5.30;99.90;;;;;;5114857;28;20386;-45
2023/03/05 02:10:33;;;;;;;19.23;11.77;;;5.30;99.90;;;;;;5114625;28;20034;-46
2023/03/05 02:13:02;;;;;;;22.27;12.20;;;5.40;99.90;;;;;;5116068;27;20111;-44
2023/03/05 02:15:29;;;;;;;19.70;11.43;;;5.40;99.90;;;;;;5114449;28;20020;-47
2023/03/05 02:17:55;;;;;;;15.20;10.23;;;5.40;99.90;;;;;;5114577;28;20260;-46
2023/03/05 02:20:27;;;;;;;17.80;10.82;;;5.30;99.90;;;;;;5114495;28;20283;-45
2023/03/05 02:22:52;;;;;;;18.98;12.15;;;5.30;99.90;;;;;;5114490;28;20032;-47
2023/03/05 02:25:21;;;;;;;16.60;9.57;;;5.30;99.90;;;;;;5114198;28;20027;-49
2023/03/05 02:28:00;;;;;;;15.35;9.88;;;5.30;99.90;;;;;;5114348;28;20012;-50
2023/03/05 02:30:26;;;;;;;;;;;5.30;99.90;;;;;;5113368;28;20015;-49
2023/03/05 02:32:52;;;;;;;17.60;10.10;;;5.30;99.90;;;;;;5114203;28;19953;-45
2023/03/05 02:35:17;;;;;;;16.15;10.00;;;5.30;99.90;;;;;;5114261;28;20032;-45
2023/03/05 02:37:43;;;;;;;19.10;11.38;;;5.30;99.90;;;;;;5113790;28;20027;-45
2023/03/05 02:40:10;;;;;;;17.15;10.80;;;5.30;99.90;;;;;;5114224;28;20483;-45
2023/03/05 02:42:37;;;;;;;16.08;9.68;;;5.30;99.90;;;;;;5119511;27;20385;-48
2023/03/05 02:45:03;;;;;;;16.67;9.75;;;5.30;99.90;;;;;;5117786;27;20038;-48
2023/03/05 02:47:29;;;;;;;18.48;10.48;;;5.30;99.90;;;;;;5118012;27;20059;-51
2023/03/05 02:49:55;;;;;;;16.95;10.43;;;5.30;99.90;;;;;;5099049;28;20058;-49
2023/03/05 02:52:24;;;;;;;17.95;9.77;;;5.30;99.90;;;;;;5113334;27;20433;-51
2023/03/05 02:54:51;;;;;;;19.05;10.80;;;5.20;99.90;;;;;;5113673;28;20487;-49
2023/03/05 02:57:18;;;;;;;24.95;12.70;;;5.20;99.90;;;;;;5113843;28;20836;-49
2023/03/05 02:59:44;;;;;;;22.52;11.50;;;5.20;99.90;;;;;;5113682;28;20430;-45
2023/03/05 03:02:10;;;;;;;19.33;10.82;;;5.20;99.90;;;;;;5113492;28;20026;-50
2023/03/05 03:04:36;;;;;;;16.27;9.43;;;5.10;99.90;;;;;;5113300;28;20031;-50
2023/03/05 03:07:01;;;;;;;14.88;9.23;;;5.10;99.90;;;;;;5111287;28;20057;-56
2023/03/05 03:09:27;;;;;;;18.17;11.23;;;5.00;99.90;;;;;;5091835;28;20032;-45
2023/03/05 03:11:53;;;;;;;18.55;11.02;;;5.00;99.90;;;;;;5097185;28;20443;-46
2023/03/05 03:14:19;;;;;;;17.92;10.98;;;5.00;99.90;;;;;;5100572;28;20453;-45
2023/03/05 03:16:45;;;;;;;19.05;11.10;;;4.90;99.90;;;;;;5106381;28;20089;-52
2023/03/05 03:19:11;;;;;;;19.42;10.75;;;4.90;99.90;;;;;;5105518;28;20019;-46
2023/03/05 03:21:37;;;;;;;16.17;10.35;;;4.90;99.90;;;;;;5112042;28;20019;-44
2023/03/05 03:24:03;;;;;;;15.70;10.32;;;4.90;99.90;;;;;;5113396;28;20024;-49
2023/03/05 03:26:29;;;;;;;18.15;10.52;;;4.80;99.90;;;;;;5098648;28;20195;-49
2023/03/05 03:28:55;;;;;;;16.88;10.70;;;4.80;99.90;;;;;;5113077;28;20023;-46
2023/03/05 03:31:20;;;;;;;17.85;10.98;;;4.80;99.90;;;;;;5112880;28;20031;-45
2023/03/05 03:33:46;;;;;;;16.33;10.43;;;4.80;99.90;;;;;;5113021;28;20050;-48
2023/03/05 03:36:12;;;;;;;18.83;9.95;;;4.80;99.90;;;;;;5112917;28;20020;-51
2023/03/05 03:38:37;;;;;;;20.05;10.95;;;4.80;99.90;;;;;;5114021;27;20027;-47
2023/03/05 03:41:06;;;;;;;17.08;10.02;;;4.80;99.90;;;;;;5112895;28;20102;-48
2023/03/05 03:43:33;;;;;;;16.92;10.52;;;4.70;99.90;;;;;;5098365;28;20115;-53
2023/03/05 03:46:00;;;;;;;18.52;10.60;;;4.70;99.90;;;;;;5112797;28;20107;-50
2023/03/05 03:48:25;;;;;;;18.33;10.40;;;4.70;99.90;;;;;;5112486;28;20032;-53
2023/03/05 03:50:51;;;;;;;16.25;9.77;;;4.70;99.90;;;;;;5111446;28;20028;-51
2023/03/05 03:53:16;;;;;;;15.32;9.68;;;4.60;99.90;;;;;;5113033;28;20092;-53
2023/03/05 03:55:45;;;;;;;17.92;10.38;;;4.60;99.90;;;;;;5112229;28;20031;-48
2023/03/05 03:58:10;;;;;;;16.98;10.32;;;4.60;99.90;;;;;;5112248;28;20098;-45
2023/03/05 04:00:37;;;;;;;18.50;11.15;;;4.60;99.90;;;;;;5112402;28;20119;-53
2023/03/05 04:03:03;;;;;;;16.88;9.43;;;4.60;99.90;;;;;;5112567;28;20028;-51
2023/03/05 04:05:29;;;;;;;15.52;9.93;;;4.60;99.90;;;;;;5097977;28;20414;-49
2023/03/05 04:07:57;;;;;;;15.63;10.07;;;4.70;99.90;;;;;;5112306;27;20030;-45
2023/03/05 04:10:23;;;;;;;19.58;10.07;;;4.60;99.90;;;;;;5112263;28;20402;-48
2023/03/05 04:12:49;;;;;;;18.88;9.93;;;4.60;99.90;;;;;;5112217;28;20016;-46
2023/03/05 04:15:14;;;;;;;13.38;9.45;;;4.60;99.90;;;;;;5112107;28;20024;-44
2023/03/05 04:17:40;;;;;;;20.05;10.50;;;4.60;99.90;;;;;;5096465;28;20039;-45
2023/03/05 04:20:09;;;;;;;18.50;9.48;;;4.70;99.90;;;;;;5112347;28;20028;-44
2023/03/05 04:22:35;;;;;;;17.17;9.60;;;4.70;99.90;;;;;;5112078;28;20034;-44
2023/03/05 04:25:05;;;;;;;20.63;9.85;;;4.70;99.90;;;;;;5110677;28;20291;-45
2023/03/05 04:27:32;;;;;;;16.58;10.05;;;4.70;99.90;;;;;;5116289;27;20144;-47
2023/03/05 04:29:57;;;;;;;18.50;9.88;;;4.60;99.90;;;;;;5111298;27;20024;-46
2023/03/05 04:32:27;;;;;;;18.48;10.55;;;4.60;99.90;;;;;;5111842;28;20023;-45
2023/03/05 04:34:53;;;;;;;;;;;4.60;99.90;;;;;;5112142;28;20039;-49
2023/03/05 04:37:18;;;;;;;16.17;10.13;;;4.60;99.90;;;;;;5111833;28;20315;-52
2023/03/05 04:39:44;;;;;;;20.45;11.48;;;4.70;99.90;;;;;;5111622;28;20027;-45
2023/03/05 04:42:09;;;;;;;19.88;10.15;;;4.70;99.90;;;;;;5111266;28;20020;-49
2023/03/05 04:44:35;;;;;;;17.63;10.02;;;4.60;99.90;;;;;;5111183;28;20075;-50
2023/03/05 04:47:01;;;;;;;14.80;8.85;;;4.70;99.90;;;;;;5111185;28;20035;-48
2023/03/05 04:49:26;;;;;;;15.25;9.10;;;4.60;99.90;;;;;;5111695;28;20030;-51
2023/03/05 04:51:52;;;;;;;15.27;9.40;;;4.60;99.90;;;;;;5110638;28;20034;-45
2023/03/05 04:54:18;;;;;;;20.63;9.50;;;4.60;99.90;;;;;;5111323;28;20031;-49
2023/03/05 04:56:43;;;;;;;16.42;9.40;;;4.60;99.90;;;;;;5111534;28;20032;-50
2023/03/05 04:59:09;;;;;;;14.10;9.50;;;4.60;99.90;;;;;;5122174;27;20020;-45
2023/03/05 05:01:35;;;;;;;16.02;10.07;;;4.60;99.90;;;;;;5110969;28;20350;-45
2023/03/05 05:04:01;;;;;;;19.38;10.38;;;4.50;99.90;;;;;;5111424;28;20051;-45
2023/03/05 05:06:26;;;;;;;15.95;10.02;;;4.50;99.90;;;;;;5111358;28;20543;-48
2023/03/05 05:08:52;;;;;;;18.40;10.60;;;4.40;99.90;;;;;;5111181;28;20027;-48
2023/03/05 05:11:17;;;;;;;18.25;9.95;;;4.40;99.90;;;;;;5111547;28;20019;-45
2023/03/05 05:13:43;;;;;;;17.55;10.40;;;4.40;99.90;;;;;;5111403;28;20060;-45
2023/03/05 05:16:09;;;;;;;14.88;9.68;;;4.40;99.90;;;;;;5104823;27;20111;-45
2023/03/05 05:18:35;;;;;;;17.55;10.50;;;4.40;99.90;;;;;;5102056;28;20091;-46
2023/03/05 05:21:00;;;;;;;13.85;9.55;;;4.30;99.90;;;;;;5110164;27;20028;-46
2023/03/05 05:23:26;;;;;;;19.27;9.80;;;4.30;99.90;;;;;;5109081;28;20034;-45
2023/03/05 05:25:57;;;;;;;18.13;10.13;;;4.30;99.90;;;;;;5115089;27;20043;-46
2023/03/05 05:28:22;;;;;;;16.13;10.10;;;4.30;99.90;;;;;;5105277;27;20032;-47
2023/03/05 05:30:48;;;;;;;16.02;10.48;;;4.30;99.90;;;;;;5110577;28;20160;-52
2023/03/05 05:33:13;;;;;;;18.33;10.38;;;4.30;99.90;;;;;;5112226;27;20166;-46
2023/03/05 05:35:39;;;;;;;16.98;10.38;;;4.30;99.90;;;;;;5110771;28;20035;-46
2023/03/05 05:38:05;;;;;;;14.77;9.73;;;4.30;99.90;;;;;;5111028;28;20012;-45
2023/03/05 05:40:30;;;;;;;18.33;9.95;;;4.30;99.90;;;;;;5110854;28;20081;-44
2023/03/05 05:42:56;;;;;;;16.40;9.85;;;4.30;99.90;;;;;;5110732;28;20027;-44
2023/03/05 05:45:21;;;;;;;18.45;9.73;;;4.30;99.90;;;;;;5109539;28;20036;-45
2023/03/05 05:47:47;;;;;;;16.20;9.60;;;4.30;99.90;;;;;;5110939;28;20026;-45
2023/03/05 05:50:13;;;;;;;16.88;9.88;;;4.30;99.90;;;;;;5110972;28;20050;-45
2023/03/05 05:52:39;;;;;;;20.00;9.60;;;4.30;99.90;;;;;;5110867;28;20371;-45
2023/03/05 05:55:05;;;;;;;17.75;9.73;;;4.30;99.90;;;;;;5110783;28;20016;-45
2023/03/05 05:57:31;;;;;;;18.60;9.95;;;4.20;99.90;;;;;;5116214;28;20027;-50
2023/03/05 05:59:56;;;;;;;16.52;9.50;;;4.20;99.90;;;;;;5116483;28;20023;-45
2023/03/05 06:02:22;;;;;;;18.88;9.38;;;4.20;99.90;;;;;;5110986;28;20020;-46
2023/03/05 06:04:48;;;;;;;17.05;9.98;;;4.20;99.90;;;;;;5113194;28;20035;-51
2023/03/05 06:07:13;;;;;;;15.13;9.02;;;4.20;99.90;;;;;;5118947;28;20015;-49
2023/03/05 06:09:39;;;;;;;16.08;10.73;;;4.20;99.90;;;;;;5119569;28;20023;-45
2023/03/05 06:12:05;;;;;;;17.80;9.75;;;4.10;99.90;;;;;;5121074;27;20127;-49
2023/03/05 06:14:31;;;;;;;15.02;9.02;;;4.10;99.90;;;;;;5117416;28;20035;-49
2023/03/05 06:16:56;;;;;;;19.17;9.88;;;4.10;99.90;;;;;;5100761;28;20039;-45
2023/03/05 06:19:22;;;;;;;16.10;9.35;;;4.00;99.90;;;;;;5106928;28;20063;-45
2023/03/05 06:21:47;;;;;;;20.25;10.02;;;4.10;99.90;;;;;;5110771;28;20468;-48
2023/03/05 06:24:13;;;;;;;15.20;9.55;;;4.10;99.90;;;;;;5110327;28;20039;-46
2023/03/05 06:26:39;;;;;;;20.98;10.30;;;4.10;99.90;;;;;;5130127;28;20452;-47
2023/03/05 06:29:04;;;;;;;15.88;9.82;;;4.10;99.90;;;;;;5128784;28;20042;-48
2023/03/05 06:31:30;;;;;;;16.00;9.85;;;4.20;99.90;;;;;;5130185;28;20369;-50
2023/03/05 06:34:00;;;;;;;15.13;9.07;;;4.10;99.90;;;;;;5130607;27;20071;-47
2023/03/05 06:36:26;;;;;;;14.45;9.02;;;4.10;99.90;;;;;;5130196;27;20042;-44
2023/03/05 06:38:53;;;;;;;15.63;9.13;;;4.10;99.90;;;;;;5130651;27;20107;-48
2023/03/05 06:41:21;;;;;;;18.15;9.40;;;4.10;99.90;;;;;;5129909;27;20054;-50
2023/03/05 06:43:48;;;;;;;17.47;9.73;;;4.10;99.90;;;;;;5130587;27;20203;-50
2023/03/05 06:46:14;;;;;;;17.10;9.52;;;4.10;99.90;;;;;;5122216;28;20383;-48
2023/03/05 06:48:44;;;;;;;19.02;9.60;;;4.10;99.90;;;;;;5121584;27;20109;-50
2023/03/05 06:51:20;;;;;;;;;;;4.10;99.90;;;;;;5129112;27;20390;-48
2023/03/05 06:53:46;;;;;;;16.63;9.13;;;4.10;99.90;;;;;;5121892;27;19939;-52
2023/03/05 06:56:12;;;;;;;15.40;8.85;;;4.20;99.90;;;;;;5127933;27;20023;-51
2023/03/05 06:58:39;;;;;;;14.43;8.93;;;4.20;99.90;;;;;;5125121;27;20521;-50
2023/03/05 07:01:06;;;;;;;17.50;9.48;;;4.20;99.90;;;;;;5122818;27;20027;-50
2023/03/05 07:03:32;;;;;;;16.10;10.10;;;4.20;99.90;;;;;;5126435;27;20023;-45
2023/03/05 07:05:58;;;;;;;18.48;9.30;;;4.20;99.90;;;;;;5124114;27;20386;-50
2023/03/05 07:08:23;;;;;;;15.10;9.75;;;4.20;99.90;;;;;;5126789;27;20427;-50
2023/03/05 07:10:49;;;;;;;16.45;9.73;;;4.20;99.90;;;;;;5121169;27;20020;-44
2023/03/05 07:13:14;;;;;;;19.17;9.95;;;4.20;99.90;;;;;;5126821;27;20057;-46
2023/03/05 07:15:40;;;;;;;16.23;9.52;;;4.20;99.90;;;;;;5124543;27;20019;-45
2023/03/05 07:18:06;;;;;;;18.50;10.02;;;4.20;99.90;;;;;;5099283;28;20084;-44
2023/03/05 07:20:36;;;;;;;16.55;9.13;;;4.20;99.90;;;;;;5113329;28;20116;-48
2023/03/05 07:23:02;;;;;;;16.23;9.65;;;4.20;99.90;;;;;;5112235;28;20360;-46
2023/03/05 07:25:28;;;;;;;15.93;9.32;;;4.20;99.90;;;;;;5112238;28;20044;-44
2023/03/05 07:27:53;;;;;;;18.83;10.38;;;4.20;99.90;;;;;;5121762;27;20543;-45
2023/03/05 07:30:19;;;;;;;19.25;10.10;;;4.30;99.90;;;;;;5113509;28;20034;-47
2023/03/05 07:32:45;;;;;;;20.70;10.75;;;4.30;99.90;;;;;;5113117;28;20055;-45
2023/03/05 07:35:10;;;;;;;18.58;9.95;;;4.30;99.90;;;;;;5113205;28;20028;-46
2023/03/05 07:37:36;;;;;;;18.77;10.18;;;4.30;99.90;;;;;;5113218;28;20035;-45
2023/03/05 07:40:03;;;;;;;15.68;9.93;;;4.30;99.90;;;;;;5112940;28;20043;-47
2023/03/05 07:42:29;;;;;;;17.20;10.38;;;4.40;99.90;;;;;;5115360;27;20483;-47
2023/03/05 07:44:55;;;;;;;18.80;10.77;;;4.40;99.90;;;;;;5117605;27;20041;-46
2023/03/05 07:47:22;;;;;;;16.55;10.05;;;4.40;99.90;;;;;;5115728;27;20023;-47
2023/03/05 07:49:48;;;;;;;15.82;9.75;;;4.40;99.90;;;;;;5111657;27;20068;-45
2023/03/05 07:52:14;;;;;;;18.25;10.13;;;4.40;99.90;;;;;;5112595;27;20031;-46
2023/03/05 07:54:40;;;;;;;17.58;9.75;;;4.50;99.90;;;;;;5112864;27;20038;-47
2023/03/05 07:57:07;;;;;;;15.18;9.88;;;4.50;99.90;;;;;;5114224;27;20062;-45
2023/03/05 07:59:33;;;;;;;22.67;11.38;;;4.60;99.90;;;;;;5112405;28;20031;-48
2023/03/05 08:01:59;;;;;;;17.88;10.18;;;4.60;99.90;;;;;;5109538;27;20016;-45
2023/03/05 08:04:25;;;;;;;18.98;10.23;;;4.60;99.90;;;;;;5112339;28;20035;-46
2023/03/05 08:06:51;;;;;;;19.70;11.38;;;4.60;99.90;;;;;;5098357;27;20036;-46
2023/03/05 08:09:17;;;;;;;20.13;10.35;;;4.70;99.90;;;;;;5132556;27;20046;-45
2023/03/05 08:11:43;;;;;;;20.35;10.27;;;4.70;99.90;;;;;;5132203;27;20028;-48
2023/03/05 08:14:10;;;;;;;17.52;9.60;;;4.80;99.90;;;;;;5132175;27;20065;-48
2023/03/05 08:16:37;;;;;;;18.92;10.02;;;4.90;99.90;;;;;;5117708;27;20433;-46
2023/03/05 08:19:03;;;;;;;19.38;10.63;;;4.90;99.90;;;;;;5105454;28;20107;-49
2023/03/05 08:21:34;;;;;;;15.73;10.20;;;4.90;99.90;;;;;;5111899;28;20092;-45
2023/03/05 08:24:03;;;;;;;14.95;9.75;;;4.90;99.90;;;;;;5111970;28;20463;-47
2023/03/05 08:26:30;;;;;;;17.83;10.63;;;5.00;99.90;;;;;;5112825;27;20023;-49
2023/03/05 08:28:56;;;;;;;15.50;10.07;;;5.00;99.90;;;;;;5121526;27;20019;-49
2023/03/05 08:31:23;;;;;;;18.48;9.90;;;5.00;99.90;;;;;;5111659;28;20074;-44
2023/03/05 08:33:51;;;;;;;19.60;10.60;;;4.90;99.90;;;;;;5111726;28;20046;-46
2023/03/05 08:36:16;;;;;;;17.95;10.18;;;5.00;99.90;;;;;;5111709;28;20055;-44
2023/03/05 08:38:43;;;;;;;16.27;10.13;;;5.00;99.90;;;;;;5111933;28;20070;-46
2023/03/05 08:41:09;;;;;;;18.05;9.65;;;5.10;99.90;;;;;;5110774;27;20019;-45
2023/03/05 08:43:35;;;;;;;16.75;9.73;;;5.20;99.90;;;;;;5113189;27;20072;-44
2023/03/05 08:46:02;;;;;;;16.25;9.90;;;5.30;99.90;;;;;;5112854;27;20035;-50
2023/03/05 08:48:28;;;;;;;19.05;10.88;;;5.30;99.90;;;;;;5113779;27;20099;-45
2023/03/05 08:50:55;;;;;;;17.95;11.02;;;5.30;99.90;;;;;;5113048;27;20074;-47
2023/03/05 08:53:21;;;;;;;15.63;10.57;;;5.30;99.90;;;;;;5112487;27;20387;-47
2023/03/05 08:55:57;;;;;;;21.40;11.25;;;5.30;99.90;;;;;;5112794;28;20031;-46
2023/03/05 08:58:23;;;;;;;21.45;12.73;;;5.40;99.90;;;;;;5112201;27;20118;-45
2023/03/05 09:00:49;;;;;;;16.17;10.35;;;5.40;99.90;;;;;;5112593;27;20103;-46
2023/03/05 09:03:15;;;;;;;19.58;11.60;;;5.40;99.90;;;;;;5119678;27;20134;-51
2023/03/05 09:05:40;;;;;;;19.58;11.10;;;5.40;99.90;;;;;;5111086;28;20453;-46
2023/03/05 09:08:06;;;;;;;19.35;10.27;;;5.50;99.90;;;;;;5111329;28;20026;-53
2023/03/05 09:10:32;;;;;;;15.77;9.98;;;5.60;99.90;;;;;;5110530;28;20015;-48
2023/03/05 09:12:57;;;;;;;19.27;10.95;;;5.60;99.90;;;;;;5110669;28;20055;-45
2023/03/05 09:15:23;;;;;;;19.45;10.50;;;5.70;99.90;;;;;;5110878;28;20066;-45
2023/03/05 09:17:49;;;;;;;17.63;11.20;;;5.60;99.90;;;;;;5096450;28;20043;-45
2023/03/05 09:20:14;;;;;;;25.30;13.32;;;5.50;99.90;;;;;;5109973;28;20471;-45
2023/03/05 09:22:40;;;;;;;18.77;10.95;;;5.60;99.90;;;;;;5111193;28;20023;-45
2023/03/05 09:25:07;;;;;;;18.17;10.60;;;5.60;99.90;;;;;;5111060;28;20468;-45
2023/03/05 09:27:36;;;;;;;17.08;10.82;;;5.70;99.90;;;;;;5120489;27;20011;-43
2023/03/05 09:30:04;;;;;;;17.08;10.48;;;5.70;99.90;;;;;;5109842;28;20031;-44
2023/03/05 09:32:30;;;;;;;17.50;9.95;;;5.80;99.90;;;;;;5110988;28;20502;-45
2023/03/05 09:34:56;;;;;;;16.33;9.63;;;5.90;99.90;;;;;;5110867;28;20047;-44
2023/03/05 09:37:22;;;;;;;17.10;10.00;;;5.90;99.90;;;;;;5110970;28;20076;-44
2023/03/05 09:39:48;;;;;;;17.75;10.18;;;5.90;99.90;;;;;;5110975;28;20072;-45
2023/03/05 09:42:32;;;;;;;15.88;9.93;;;5.90;99.90;;;;;;5110940;28;20012;-47
2023/03/05 09:45:20;;;;;;;16.30;9.25;;;5.90;99.90;;;;;;5110715;28;20047;-47
2023/03/05 09:47:48;;;;;;;17.42;9.45;;;5.80;99.90;;;;;;5110402;28;20051;-47
2023/03/05 09:50:40;;;;;;;20.92;9.50;;;6.00;99.90;;;;;;5110277;28;20020;-44
2023/03/05 09:53:20;;;;;;;14.80;9.65;;;6.20;99.90;;;;;;5110573;28;20395;-48
2023/03/05 09:55:50;;;;;;;16.50;9.90;;;6.20;99.00;;;;;;5116333;28;20596;-44
2023/03/05 09:58:36;;;;;;;;;;;6.10;98.80;;;;;;5110945;28;20332;-44
2023/03/05 10:01:16;;;;;;;16.45;9.43;;;6.10;98.50;;;;;;5110654;28;20002;-52
2023/03/05 10:03:47;;;;;;;15.98;9.68;;;6.30;99.00;;;;;;5125197;28;20468;-47
2023/03/05 10:06:43;;;;;;;15.95;9.32;;;6.40;97.60;;;;;;5130026;28;20050;-51
2023/03/05 10:09:08;;;;;;;17.52;9.30;;;6.60;97.60;;;;;;5121198;28;20023;-53
2023/03/05 10:11:46;;;;;;;16.23;9.00;;;6.70;97.90;;;;;;5110225;28;20035;-44
2023/03/05 10:14:22;;;;;;;16.27;9.80;;;6.80;98.00;;;;;;5110850;28;20486;-46
2023/03/05 10:17:18;;;;;;;17.92;10.30;;;7.00;96.60;;;;;;5110134;28;20016;-45
2023/03/05 10:19:53;;;;;;;14.45;9.60;;;7.20;96.50;;;;;;5127033;28;20433;-47
2023/03/05 10:22:48;;;;;;;15.20;8.70;;;7.40;94.30;;;;;;5112432;27;20026;-46
2023/03/05 10:25:33;;;;;;;15.55;9.02;;;7.40;94.60;;;;;;5128512;27;20522;-43
2023/03/05 10:28:06;;;;;;;14.07;9.50;;;7.40;93.70;;;;;;5123140;27;20083;-44
2023/03/05 10:30:47;;;;;;;15.55;10.00;;;7.60;94.80;;;;;;5114115;28;20027;-44
2023/03/05 10:33:31;;;;;;;17.48;10.18;;;7.80;93.30;;;;;;5117077;27;20044;-45
2023/03/05 10:36:18;;;;;;;19.40;9.75;;;7.90;92.90;;;;;;5114126;27;20479;-48
2023/03/05 10:39:09;;;;;;;16.88;9.30;;;8.00;91.70;;;;;;5114193;28;20024;-47
2023/03/05 10:42:12;;;;;;;14.30;9.30;;;7.90;92.30;;;;;;5108519;27;20023;-51
2023/03/05 10:44:48;;;;;;;17.20;9.75;;;8.10;91.90;;;;;;5120349;27;20077;-50
2023/03/05 10:47:26;;;;;;;19.55;9.30;;;8.30;90.80;;;;;;5120731;27;20026;-49
2023/03/05 10:49:54;;;;;;;15.57;9.48;;;8.40;90.50;;;;;;5119362;27;20023;-47
2023/03/05 10:52:36;;;;;;;13.90;9.35;;;8.10;91.00;;;;;;5105336;28;20024;-46
2023/03/05 10:55:22;;;;;;;17.83;9.98;;;7.90;91.10;;;;;;5124770;27;20034;-48
2023/03/05 10:57:49;;;;;;;14.25;8.80;;;8.10;90.50;;;;;;5129079;27;20030;-52
2023/03/05 11:00:24;;;;;;;15.82;9.68;;;8.10;91.00;;;;;;5125389;27;20160;-53
2023/03/05 11:03:01;;;;;;;18.33;9.93;;;8.00;90.60;;;;;;5123637;27;20042;-54
2023/03/05 11:05:41;;;;;;;15.50;9.65;;;7.90;90.30;;;;;;5123087;27;20035;-47
2023/03/05 11:08:35;;;;;;;19.23;9.90;;;7.80;90.00;;;;;;5127831;27;20418;-54
2023/03/05 11:11:08;;;;;;;14.10;9.52;;;7.80;90.40;;;;;;5115923;27;20031;-45
2023/03/05 11:13:37;;;;;;;13.55;9.13;;;8.00;90.40;;;;;;5123212;27;20026;-52
2023/03/05 11:16:05;;;;;;;17.02;10.05;;;8.20;90.50;;;;;;5107734;28;20118;-48
2023/03/05 11:18:36;;;;;;;15.07;9.30;;;8.40;89.10;;;;;;5105483;28;20031;-44
2023/03/05 11:21:31;;;;;;;14.80;9.90;;;8.50;88.70;;;;;;5106614;27;20020;-44
2023/03/05 11:24:07;;;;;;;15.60;9.60;;;8.80;88.90;;;;;;5092967;27;20065;-45
2023/03/05 11:26:33;;;;;;;14.18;9.57;;;8.90;86.20;;;;;;5111942;27;20036;-51
2023/03/05 11:29:02;;;;;;;14.30;9.20;;;9.20;86.10;;;;;;5117112;27;20027;-44
2023/03/05 11:31:30;;;;;;;16.30;9.50;;;9.50;83.70;;;;;;5112920;27;20020;-50
2023/03/05 11:34:16;;;;;;;14.55;10.13;;;9.50;85.50;;;;;;5114018;27;20640;-44
2023/03/05 11:36:57;;;;;;;15.70;9.45;;;9.10;84.00;;;;;;5120154;27;20939;-53
2023/03/05 11:39:29;;;;;;;14.52;9.27;;;8.70;84.90;;;;;;5123278;27;20156;-45
2023/03/05 11:42:03;;;;;;;15.23;9.63;;;9.00;84.20;;;;;;5118944;27;20475;-45
2023/03/05 11:44:46;;;;;;;15.18;9.88;;;9.20;84.70;;;;;;5123275;27;20027;-45
2023/03/05 11:47:30;;;;;;;14.93;9.45;;;9.00;85.30;;;;;;5118762;27;20016;-47
2023/03/05 11:50:23;;;;;;;17.17;9.20;;;9.30;84.60;;;;;;5110060;27;20056;-45
2023/03/05 11:52:52;;;;;;;18.00;9.77;;;9.50;85.20;;;;;;5117101;27;20027;-48
2023/03/05 11:55:39;;;;;;;;;;;9.80;82.30;;;;;;5118525;27;20020;-47
2023/03/05 11:58:35;;;;;;;16.58;9.60;;;9.90;80.40;;;;;;5118426;27;20394;-55
2023/03/05 12:01:05;;;;;;;14.13;9.57;;;9.60;80.50;;;;;;5108591;27;20091;-49
2023/03/05 12:03:34;;;;;;;14.98;10.02;;;9.20;80.50;;;;;;5119462;27;20088;-54
2023/03/05 12:06:21;;;;;;;15.52;9.75;;;8.90;82.90;;;;;;5116097;27;20088;-51
2023/03/05 12:08:53;;;;;;;16.70;9.23;;;8.70;85.20;;;;;;5119103;27;20019;-48
2023/03/05 12:11:37;;;;;;;14.70;10.13;;;8.70;86.10;;;;;;5116067;27;20468;-45
2023/03/05 12:14:13;;;;;;;14.88;9.20;;;8.70;84.30;;;;;;5117647;27;20012;-45
2023/03/05 12:16:58;;;;;;;14.45;9.25;;;8.70;83.80;;;;;;5104436;28;20384;-48
2023/03/05 12:19:51;;;;;;;16.02;9.75;;;8.90;83.80;;;;;;5108514;28;20028;-48
2023/03/05 12:22:22;;;;;;;13.65;9.85;;;8.90;84.70;;;;;;5112535;28;20019;-47
2023/03/05 12:24:48;;;;;;;14.50;9.45;;;9.00;82.50;;;;;;5112455;28;20546;-47
2023/03/05 12:27:35;;;;;;;14.88;10.25;;;9.20;83.40;;;;;;5112275;28;20098;-48
2023/03/05 12:30:03;;;;;;;14.65;9.48;;;9.00;81.70;;;;;;5111528;27;20076;-50
2023/03/05 12:32:30;;;;;;;14.10;9.68;;;8.80;83.00;;;;;;5121354;27;20498;-47
2023/03/05 12:35:24;;;;;;;14.50;9.77;;;8.50;83.90;;;;;;5125658;27;20048;-49
2023/03/05 12:37:49;;;;;;;14.27;9.43;;;9.00;84.40;;;;;;5129216;27;20031;-45
2023/03/05 12:40:44;;;;;;;14.35;9.88;;;9.50;83.20;;;;;;5123047;27;20030;-45
2023/03/05 12:43:30;;;;;;;14.68;9.93;;;10.20;82.50;;;;;;5113862;27;20693;-48
2023/03/05 12:47:03;;;;;;;17.27;9.27;;;11.10;79.00;;;;;;5110189;27;20482;-46
2023/03/05 12:49:37;;;;;;;16.00;10.40;;;11.50;73.30;;;;;;5033438;27;20067;-50
2023/03/05 12:52:04;;;;;;;14.50;10.18;;;10.60;73.40;;;;;;5123883;27;20027;-44
2023/03/05 12:54:41;;;;;;;14.15;9.88;;;10.30;75.10;;;;;;5121987;27;20046;-53
2023/03/05 12:57:22;;;;;;;16.95;10.65;;;10.80;75.10;;;;;;5114487;27;20383;-46
2023/03/05 13:00:00;;;;;;;12.85;9.88;;;10.90;74.10;;;;;;5110829;27;20085;-45